Terminal Aerodrome Forecast
Issued by NWS Greer, SC

Home | Current Version | Previous Version | Text Only | Print | Product List | Glossary On
Versions: 1 2 3 4 5 6 7 8 9 10 11 12 13 14 15 16 17 18 19 20 21
322
FTUS42 KGSP 012118 AAB
TAFGSP
TAF AMD
KGSP 012118Z 0121/0218 23016G28KT P6SM VCSH BKN035
     FM012200 22017G29KT P6SM VCTS OVC035CB
      TEMPO 0122/0201 VRB20G35KT 3SM TSRA OVC020CB
     FM020100 24013G23KT P6SM -SHRA OVC040
     FM020300 25012G20KT P6SM BKN050
     FM020500 29012G20KT P6SM SCT060
     FM020800 32010G17KT P6SM SCT250=

USA.gov is the U.S. government's official web portal to all federal, state and local government web resources and services.